Spillimacheen, Canada
Current Conditions -  °F | °C
As of 5:19 AM on Friday 24 Oct 2014 (Local Time) from CYRV Reporting Station
Overcast Overcast  
Wind Chill: 45°   Ceiling: 1700
Heat Index: 45°   Visibility: 9mi
Dew Point: 43°   Wind: 2mph
Humidity: 93%   Direction: NA
Pressure: 29.98"   Gusts: NA
Location:  50.9°N, 116.37°W
Report Text: CYRV 241119Z AUTO VRB02KT 9SM BKN017 OVC065 07/06 A2998 RMK SLP162
Loading
Personal Weather Stations






























Interactive Weather Map
Tropical Storm Tracking
New forecast layout! Learn more

10-Day Weather Forecast

Advertisements
Track Severe Weather on mobile